sensor_id;sensor_type;location;lat;lon;timestamp;pressure;altitude;pressure_sealevel;temperature;humidity
74637;BME280;63141;54.616;39.754;2023-07-13T00:02:10;99369.09;;;22.03;45.55
74637;BME280;63141;54.616;39.754;2023-07-13T00:05:17;99369.97;;;22.04;45.65
74637;BME280;63141;54.616;39.754;2023-07-13T00:08:19;99370.06;;;22.02;45.62
74637;BME280;63141;54.616;39.754;2023-07-13T00:11:20;99364.75;;;22.02;45.90
74637;BME280;63141;54.616;39.754;2023-07-13T00:14:22;99368.31;;;22.01;45.69
74637;BME280;63141;54.616;39.754;2023-07-13T00:17:24;99368.41;;;22.00;45.64
74637;BME280;63141;54.616;39.754;2023-07-13T00:20:25;99358.66;;;22.00;45.58
74637;BME280;63141;54.616;39.754;2023-07-13T00:23:27;99364.81;;;22.01;45.56
74637;BME280;63141;54.616;39.754;2023-07-13T00:26:28;99361.38;;;21.99;45.54
74637;BME280;63141;54.616;39.754;2023-07-13T00:29:30;99356.19;;;21.97;45.53
74637;BME280;63141;54.616;39.754;2023-07-13T00:32:32;99365.84;;;21.98;45.63
74637;BME280;63141;54.616;39.754;2023-07-13T00:35:34;99361.38;;;21.99;45.57
74637;BME280;63141;54.616;39.754;2023-07-13T00:38:36;99353.53;;;21.97;45.52
74637;BME280;63141;54.616;39.754;2023-07-13T00:41:38;99358.84;;;21.97;45.42
74637;BME280;63141;54.616;39.754;2023-07-13T00:44:39;99352.66;;;21.96;45.53
74637;BME280;63141;54.616;39.754;2023-07-13T00:47:41;99361.47;;;21.97;45.60
74637;BME280;63141;54.616;39.754;2023-07-13T00:50:46;99358.84;;;21.97;45.45
74637;BME280;63141;54.616;39.754;2023-07-13T00:53:52;99364.13;;;21.97;45.64
74637;BME280;63141;54.616;39.754;2023-07-13T00:56:57;99357.09;;;21.96;45.49
74637;BME280;63141;54.616;39.754;2023-07-13T01:00:03;99359.75;;;21.96;45.85
74637;BME280;63141;54.616;39.754;2023-07-13T01:03:11;99358.06;;;21.95;45.73
74637;BME280;63141;54.616;39.754;2023-07-13T01:06:17;99364.19;;;21.95;45.91
74637;BME280;63141;54.616;39.754;2023-07-13T01:09:19;99363.25;;;21.96;46.02
74637;BME280;63141;54.616;39.754;2023-07-13T01:12:21;99362.41;;;21.96;45.87
74637;BME280;63141;54.616;39.754;2023-07-13T01:15:44;99358.97;;;21.94;45.76
74637;BME280;63141;54.616;39.754;2023-07-13T01:18:47;99353.66;;;21.94;45.97
74637;BME280;63141;54.616;39.754;2023-07-13T01:21:52;99361.63;;;21.94;46.06
74637;BME280;63141;54.616;39.754;2023-07-13T01:24:54;99359.91;;;21.93;46.02
74637;BME280;63141;54.616;39.754;2023-07-13T01:27:55;99358.97;;;21.94;46.29
74637;BME280;63141;54.616;39.754;2023-07-13T01:30:59;99355.41;;;21.95;46.03
74637;BME280;63141;54.616;39.754;2023-07-13T01:34:04;99358.97;;;21.94;46.08
74637;BME280;63141;54.616;39.754;2023-07-13T01:37:09;99358.97;;;21.94;46.17
74637;BME280;63141;54.616;39.754;2023-07-13T01:40:11;99358.97;;;21.94;46.20
74637;BME280;63141;54.616;39.754;2023-07-13T01:43:13;99358.13;;;21.93;46.44
74637;BME280;63141;54.616;39.754;2023-07-13T01:46:15;99351.97;;;21.93;46.24
74637;BME280;63141;54.616;39.754;2023-07-13T01:49:16;99355.53;;;21.92;46.37
74637;BME280;63141;54.616;39.754;2023-07-13T01:52:17;99357.25;;;21.93;46.63
74637;BME280;63141;54.616;39.754;2023-07-13T01:55:20;99346.66;;;21.93;46.34
74637;BME280;63141;54.616;39.754;2023-07-13T01:58:21;99360.84;;;21.92;46.60
74637;BME280;63141;54.616;39.754;2023-07-13T02:01:25;99351.19;;;21.91;46.49
74637;BME280;63141;54.616;39.754;2023-07-13T02:04:29;99353.84;;;21.91;46.53
74637;BME280;63141;54.616;39.754;2023-07-13T02:07:32;99348.53;;;21.91;46.42
74637;BME280;63141;54.616;39.754;2023-07-13T02:10:34;99348.53;;;21.91;46.40
74637;BME280;63141;54.616;39.754;2023-07-13T02:13:35;99348.53;;;21.91;46.59
74637;BME280;63141;54.616;39.754;2023-07-13T02:16:37;99341.53;;;21.90;46.55
74637;BME280;63141;54.616;39.754;2023-07-13T02:19:38;99343.22;;;21.91;46.70
74637;BME280;63141;54.616;39.754;2023-07-13T02:22:39;99339.72;;;21.90;46.57
74637;BME280;63141;54.616;39.754;2023-07-13T02:25:41;99338.88;;;21.90;46.72
74637;BME280;63141;54.616;39.754;2023-07-13T02:28:43;99339.72;;;21.90;46.67
74637;BME280;63141;54.616;39.754;2023-07-13T02:31:44;99342.50;;;21.87;46.56
74637;BME280;63141;54.616;39.754;2023-07-13T02:34:46;99345.16;;;21.87;46.53
74637;BME280;63141;54.616;39.754;2023-07-13T02:37:47;99347.91;;;21.86;46.45
74637;BME280;63141;54.616;39.754;2023-07-13T02:40:48;99350.56;;;21.86;46.54
74637;BME280;63141;54.616;39.754;2023-07-13T02:43:50;99354.13;;;21.85;46.67
74637;BME280;63141;54.616;39.754;2023-07-13T02:46:51;99342.63;;;21.86;46.75
74637;BME280;63141;54.616;39.754;2023-07-13T02:49:52;99344.31;;;21.87;46.60
74637;BME280;63141;54.616;39.754;2023-07-13T02:52:55;99342.63;;;21.86;46.69
74637;BME280;63141;54.616;39.754;2023-07-13T02:55:56;99352.28;;;21.87;46.67
74637;BME280;63141;54.616;39.754;2023-07-13T02:58:57;99344.25;;;21.88;46.81
74637;BME280;63141;54.616;39.754;2023-07-13T03:02:01;99338.94;;;21.88;46.89
74637;BME280;63141;54.616;39.754;2023-07-13T03:05:08;99332.69;;;21.89;47.07
74637;BME280;63141;54.616;39.754;2023-07-13T03:08:12;99327.50;;;21.88;46.91
74637;BME280;63141;54.616;39.754;2023-07-13T03:11:18;99333.72;;;21.87;46.95
74637;BME280;63141;54.616;39.754;2023-07-13T03:14:24;99333.88;;;21.84;46.92
74637;BME280;63141;54.616;39.754;2023-07-13T03:17:26;99336.53;;;21.84;47.04
74637;BME280;63141;54.616;39.754;2023-07-13T03:20:27;99331.22;;;21.84;46.83
74637;BME280;63141;54.616;39.754;2023-07-13T03:23:29;99338.34;;;21.83;46.98
74637;BME280;63141;54.616;39.754;2023-07-13T03:26:30;99325.16;;;21.82;47.07
74637;BME280;63141;54.616;39.754;2023-07-13T03:29:31;99333.09;;;21.82;46.87
74637;BME280;63141;54.616;39.754;2023-07-13T03:32:33;99323.44;;;21.81;47.07
74637;BME280;63141;54.616;39.754;2023-07-13T03:35:35;99333.03;;;21.83;47.00
74637;BME280;63141;54.616;39.754;2023-07-13T03:38:36;99323.28;;;21.84;46.95
74637;BME280;63141;54.616;39.754;2023-07-13T03:41:38;99320.63;;;21.84;47.06
74637;BME280;63141;54.616;39.754;2023-07-13T03:44:41;99332.09;;;21.84;47.05
74637;BME280;63141;54.616;39.754;2023-07-13T03:47:43;99323.34;;;21.82;47.26
74637;BME280;63141;54.616;39.754;2023-07-13T03:50:47;99326.09;;;21.81;47.21
74637;BME280;63141;54.616;39.754;2023-07-13T03:53:48;99326.16;;;21.79;47.21
74637;BME280;63141;54.616;39.754;2023-07-13T03:56:52;99320.94;;;21.78;47.30
74637;BME280;63141;54.616;39.754;2023-07-13T03:59:55;99321.88;;;21.77;47.41
74637;BME280;63141;54.616;39.754;2023-07-13T04:02:57;99322.72;;;21.77;47.42
74637;BME280;63141;54.616;39.754;2023-07-13T04:06:06;99324.53;;;21.77;47.25
74637;BME280;63141;54.616;39.754;2023-07-13T04:09:07;99321.88;;;21.77;47.27
74637;BME280;63141;54.616;39.754;2023-07-13T04:12:11;99328.09;;;21.75;47.28
74637;BME280;63141;54.616;39.754;2023-07-13T04:15:12;99332.56;;;21.75;47.30
74637;BME280;63141;54.616;39.754;2023-07-13T04:18:14;99322.81;;;21.75;47.24
74637;BME280;63141;54.616;39.754;2023-07-13T04:21:16;99321.09;;;21.74;47.29
74637;BME280;63141;54.616;39.754;2023-07-13T04:24:17;99316.66;;;21.75;47.34
74637;BME280;63141;54.616;39.754;2023-07-13T04:27:18;99321.88;;;21.77;47.35
74637;BME280;63141;54.616;39.754;2023-07-13T04:30:20;99324.53;;;21.77;47.24
74637;BME280;63141;54.616;39.754;2023-07-13T04:33:22;99328.94;;;21.76;47.38
74637;BME280;63141;54.616;39.754;2023-07-13T04:36:24;99329.84;;;21.77;47.38
74637;BME280;63141;54.616;39.754;2023-07-13T04:39:28;99334.19;;;21.78;47.38
74637;BME280;63141;54.616;39.754;2023-07-13T04:42:29;99340.34;;;21.78;47.51
74637;BME280;63141;54.616;39.754;2023-07-13T04:45:31;99343.09;;;21.77;47.45
74637;BME280;63141;54.616;39.754;2023-07-13T04:48:33;99340.28;;;21.80;47.61
74637;BME280;63141;54.616;39.754;2023-07-13T04:51:35;99341.13;;;21.80;47.53
74637;BME280;63141;54.616;39.754;2023-07-13T04:54:36;99338.47;;;21.80;47.56
74637;BME280;63141;54.616;39.754;2023-07-13T04:57:38;99336.69;;;21.81;47.54
74637;BME280;63141;54.616;39.754;2023-07-13T05:00:42;99334.06;;;21.81;47.51
74637;BME280;63141;54.616;39.754;2023-07-13T05:03:43;99326.09;;;21.81;47.49
74637;BME280;63141;54.616;39.754;2023-07-13T05:06:47;99332.31;;;21.80;47.52
74637;BME280;63141;54.616;39.754;2023-07-13T05:09:48;99328.81;;;21.79;47.68
74637;BME280;63141;54.616;39.754;2023-07-13T05:12:50;99337.69;;;21.78;47.83
74637;BME280;63141;54.616;39.754;2023-07-13T05:15:59;99336.84;;;21.78;47.91
74637;BME280;63141;54.616;39.754;2023-07-13T05:19:01;99335.13;;;21.77;47.92
74637;BME280;63141;54.616;39.754;2023-07-13T05:22:02;99338.63;;;21.77;47.91
74637;BME280;63141;54.616;39.754;2023-07-13T05:25:06;99335.13;;;21.77;48.08
74637;BME280;63141;54.616;39.754;2023-07-13T05:28:07;99329.84;;;21.77;47.99
74637;BME280;63141;54.616;39.754;2023-07-13T05:31:09;99331.53;;;21.78;47.98
74637;BME280;63141;54.616;39.754;2023-07-13T05:34:11;99332.38;;;21.78;48.20
74637;BME280;63141;54.616;39.754;2023-07-13T05:37:12;99336.00;;;21.77;48.04
74637;BME280;63141;54.616;39.754;2023-07-13T05:40:14;99339.50;;;21.78;48.21
74637;BME280;63141;54.616;39.754;2023-07-13T05:43:15;99341.22;;;21.79;48.29
74637;BME280;63141;54.616;39.754;2023-07-13T05:46:16;99336.84;;;21.78;48.21
74637;BME280;63141;54.616;39.754;2023-07-13T05:49:18;99323.59;;;21.78;48.41
74637;BME280;63141;54.616;39.754;2023-07-13T05:52:19;99328.09;;;21.75;48.42
74637;BME280;63141;54.616;39.754;2023-07-13T05:55:20;99325.44;;;21.75;48.51
74637;BME280;63141;54.616;39.754;2023-07-13T05:58:22;99318.53;;;21.73;48.42
74637;BME280;63141;54.616;39.754;2023-07-13T06:01:26;99328.19;;;21.74;48.55
74637;BME280;63141;54.616;39.754;2023-07-13T06:04:27;99321.09;;;21.74;48.60
74637;BME280;63141;54.616;39.754;2023-07-13T06:07:31;99318.53;;;21.73;48.46
74637;BME280;63141;54.616;39.754;2023-07-13T06:10:34;99326.47;;;21.73;48.60
74637;BME280;63141;54.616;39.754;2023-07-13T06:13:35;99329.13;;;21.73;48.74
74637;BME280;63141;54.616;39.754;2023-07-13T06:16:37;99340.56;;;21.73;48.76
74637;BME280;63141;54.616;39.754;2023-07-13T06:19:38;99345.88;;;21.73;48.77
74637;BME280;63141;54.616;39.754;2023-07-13T06:22:39;99344.16;;;21.72;48.78
74637;BME280;63141;54.616;39.754;2023-07-13T06:25:41;99344.16;;;21.72;48.79
74637;BME280;63141;54.616;39.754;2023-07-13T06:28:46;99332.72;;;21.72;48.96
74637;BME280;63141;54.616;39.754;2023-07-13T06:31:50;99338.03;;;21.72;48.86
74637;BME280;63141;54.616;39.754;2023-07-13T06:34:54;99333.56;;;21.72;48.95
74637;BME280;63141;54.616;39.754;2023-07-13T06:37:56;99333.56;;;21.72;48.99
74637;BME280;63141;54.616;39.754;2023-07-13T06:41:00;99332.72;;;21.72;48.94
74637;BME280;63141;54.616;39.754;2023-07-13T06:44:01;99334.50;;;21.71;49.00
74637;BME280;63141;54.616;39.754;2023-07-13T06:47:03;99334.50;;;21.71;48.85
74637;BME280;63141;54.616;39.754;2023-07-13T06:50:05;99324.84;;;21.70;48.97
74637;BME280;63141;54.616;39.754;2023-07-13T06:53:06;99324.78;;;21.72;48.98
74637;BME280;63141;54.616;39.754;2023-07-13T06:56:07;99342.44;;;21.71;48.98
74637;BME280;63141;54.616;39.754;2023-07-13T06:59:09;99338.03;;;21.72;49.03
74637;BME280;63141;54.616;39.754;2023-07-13T07:02:10;99326.53;;;21.71;49.02
74637;BME280;63141;54.616;39.754;2023-07-13T07:05:17;99315.94;;;21.71;49.21
74637;BME280;63141;54.616;39.754;2023-07-13T07:08:18;99312.44;;;21.71;49.40
74637;BME280;63141;54.616;39.754;2023-07-13T07:11:24;99331.00;;;21.71;49.23
74637;BME280;63141;54.616;39.754;2023-07-13T07:18:55;99347.84;;;21.70;49.45
74637;BME280;63141;54.616;39.754;2023-07-13T07:21:56;99342.44;;;21.71;49.50
74637;BME280;63141;54.616;39.754;2023-07-13T07:29:33;99347.75;;;21.71;49.50
74637;BME280;63141;54.616;39.754;2023-07-13T07:37:22;99327.50;;;21.70;49.58
74637;BME280;63141;54.616;39.754;2023-07-13T07:40:23;99339.03;;;21.69;49.69
74637;BME280;63141;54.616;39.754;2023-07-13T07:43:25;99339.88;;;21.70;49.67
74637;BME280;63141;54.616;39.754;2023-07-13T07:46:26;99359.28;;;21.70;49.56
74637;BME280;63141;54.616;39.754;2023-07-13T07:49:30;99352.19;;;21.71;49.68
74637;BME280;63141;54.616;39.754;2023-07-13T07:52:31;99328.44;;;21.69;49.77
74637;BME280;63141;54.616;39.754;2023-07-13T07:55:34;99330.13;;;21.70;49.80
74637;BME280;63141;54.616;39.754;2023-07-13T07:58:38;99333.75;;;21.69;50.07
74637;BME280;63141;54.616;39.754;2023-07-13T08:01:39;99332.78;;;21.70;50.02
74637;BME280;63141;54.616;39.754;2023-07-13T08:04:40;99339.03;;;21.69;50.04
74637;BME280;63141;54.616;39.754;2023-07-13T08:07:42;99331.84;;;21.71;50.00
74637;BME280;63141;54.616;39.754;2023-07-13T08:10:43;99336.38;;;21.69;50.05
74637;BME280;63141;54.616;39.754;2023-07-13T08:13:44;99324.06;;;21.68;50.00
74637;BME280;63141;54.616;39.754;2023-07-13T08:16:48;99326.63;;;21.70;50.05
74637;BME280;63141;54.616;39.754;2023-07-13T08:19:50;99326.69;;;21.68;50.14
74637;BME280;63141;54.616;39.754;2023-07-13T08:22:51;99320.38;;;21.71;50.24
74637;BME280;63141;54.616;39.754;2023-07-13T08:25:53;99325.78;;;21.69;50.13
74637;BME280;63141;54.616;39.754;2023-07-13T08:28:55;99333.75;;;21.69;50.32
74637;BME280;63141;54.616;39.754;2023-07-13T08:31:57;99326.63;;;21.70;50.23
74637;BME280;63141;54.616;39.754;2023-07-13T08:34:59;99339.03;;;21.69;50.46
74637;BME280;63141;54.616;39.754;2023-07-13T08:38:04;99338.16;;;21.69;50.19
74637;BME280;63141;54.616;39.754;2023-07-13T08:41:19;99344.34;;;21.69;50.28
74637;BME280;63141;54.616;39.754;2023-07-13T08:48:21;99339.03;;;21.69;50.40
74637;BME280;63141;54.616;39.754;2023-07-13T08:51:39;99328.44;;;21.69;50.32
74637;BME280;63141;54.616;39.754;2023-07-13T08:54:50;99320.50;;;21.69;50.37
74637;BME280;63141;54.616;39.754;2023-07-13T08:58:05;99339.03;;;21.69;50.71
74637;BME280;63141;54.616;39.754;2023-07-13T09:01:15;99347.91;;;21.68;50.38
74637;BME280;63141;54.616;39.754;2023-07-13T09:04:22;99347.00;;;21.69;50.42
74637;BME280;63141;54.616;39.754;2023-07-13T09:10:59;99351.34;;;21.70;50.47
74637;BME280;63141;54.616;39.754;2023-07-13T09:17:51;99356.63;;;21.70;50.28
74637;BME280;63141;54.616;39.754;2023-07-13T09:20:59;99364.66;;;21.69;50.58
74637;BME280;63141;54.616;39.754;2023-07-13T09:27:40;99370.84;;;21.69;50.38
74637;BME280;63141;54.616;39.754;2023-07-13T09:31:06;99376.16;;;21.69;50.43
74637;BME280;63141;54.616;39.754;2023-07-13T09:34:14;99385.78;;;21.70;50.36
74637;BME280;63141;54.616;39.754;2023-07-13T09:37:15;99368.94;;;21.71;50.40
74637;BME280;63141;54.616;39.754;2023-07-13T09:40:25;99354.78;;;21.72;50.52
74637;BME280;63141;54.616;39.754;2023-07-13T09:43:29;99345.09;;;21.71;50.74
74637;BME280;63141;54.616;39.754;2023-07-13T09:46:36;99337.13;;;21.71;50.87
74637;BME280;63141;54.616;39.754;2023-07-13T09:49:38;99355.69;;;21.71;50.88
74637;BME280;63141;54.616;39.754;2023-07-13T09:52:49;99347.75;;;21.71;51.23
74637;BME280;63141;54.616;39.754;2023-07-13T09:55:52;99346.81;;;21.72;51.34
74637;BME280;63141;54.616;39.754;2023-07-13T09:58:56;99351.28;;;21.72;51.51
74637;BME280;63141;54.616;39.754;2023-07-13T10:01:58;99366.22;;;21.73;51.82
74637;BME280;63141;54.616;39.754;2023-07-13T10:05:01;99361.78;;;21.73;51.68
74637;BME280;63141;54.616;39.754;2023-07-13T10:08:04;99363.50;;;21.74;51.65
74637;BME280;63141;54.616;39.754;2023-07-13T10:11:20;99359.78;;;21.79;51.69
74637;BME280;63141;54.616;39.754;2023-07-13T10:14:29;99355.25;;;21.81;51.81
74637;BME280;63141;54.616;39.754;2023-07-13T10:17:34;99364.91;;;21.82;51.93
74637;BME280;63141;54.616;39.754;2023-07-13T10:20:39;99370.16;;;21.83;52.01
74637;BME280;63141;54.616;39.754;2023-07-13T10:23:52;99360.31;;;21.85;52.21
74637;BME280;63141;54.616;39.754;2023-07-13T10:27:01;99352.28;;;21.87;52.21
74637;BME280;63141;54.616;39.754;2023-07-13T10:30:12;99358.34;;;21.89;52.29
74637;BME280;63141;54.616;39.754;2023-07-13T10:33:43;99361.84;;;21.89;52.13
74637;BME280;63141;54.616;39.754;2023-07-13T10:36:47;99367.16;;;21.89;52.18
74637;BME280;63141;54.616;39.754;2023-07-13T10:39:58;99377.75;;;21.89;52.29
74637;BME280;63141;54.616;39.754;2023-07-13T10:46:49;99351.97;;;21.93;52.23
74637;BME280;63141;54.616;39.754;2023-07-13T10:49:56;99358.97;;;21.94;52.30
74637;BME280;63141;54.616;39.754;2023-07-13T10:56:33;99360.59;;;21.96;52.62
74637;BME280;63141;54.616;39.754;2023-07-13T10:59:35;99374.75;;;21.97;52.48
74637;BME280;63141;54.616;39.754;2023-07-13T11:02:39;99365.84;;;21.98;52.41
74637;BME280;63141;54.616;39.754;2023-07-13T11:05:43;99374.75;;;21.97;52.64
74637;BME280;63141;54.616;39.754;2023-07-13T11:11:56;99395.00;;;21.98;52.53
74637;BME280;63141;54.616;39.754;2023-07-13T11:15:13;99353.53;;;21.97;52.20
74637;BME280;63141;54.616;39.754;2023-07-13T11:18:23;99346.34;;;21.99;52.06
74637;BME280;63141;54.616;39.754;2023-07-13T11:21:29;99355.22;;;21.98;51.96
74637;BME280;63141;54.616;39.754;2023-07-13T11:25:00;99363.19;;;21.98;51.78
74637;BME280;63141;54.616;39.754;2023-07-13T11:28:16;99350.78;;;21.99;51.70
74637;BME280;63141;54.616;39.754;2023-07-13T11:31:21;99347.28;;;21.98;51.57
74637;BME280;63141;54.616;39.754;2023-07-13T11:34:33;99360.53;;;21.98;51.26
74637;BME280;63141;54.616;39.754;2023-07-13T11:37:40;99357.88;;;21.98;51.42
74637;BME280;63141;54.616;39.754;2023-07-13T11:40:48;99350.78;;;21.99;51.44
74637;BME280;63141;54.616;39.754;2023-07-13T11:44:01;99339.31;;;21.98;51.25
74637;BME280;63141;54.616;39.754;2023-07-13T11:47:10;99341.97;;;21.98;51.33
74637;BME280;63141;54.616;39.754;2023-07-13T11:50:30;99357.88;;;21.98;51.25
74637;BME280;63141;54.616;39.754;2023-07-13T11:53:45;99357.88;;;21.98;51.09
74637;BME280;63141;54.616;39.754;2023-07-13T11:56:55;99353.53;;;21.97;51.02
74637;BME280;63141;54.616;39.754;2023-07-13T12:00:04;99348.22;;;21.97;50.86
74637;BME280;63141;54.616;39.754;2023-07-13T12:03:20;99348.22;;;21.97;50.75
74637;BME280;63141;54.616;39.754;2023-07-13T12:06:28;99357.94;;;21.96;50.71
74637;BME280;63141;54.616;39.754;2023-07-13T12:09:35;99351.78;;;21.96;50.74
74637;BME280;63141;54.616;39.754;2023-07-13T12:12:48;99364.19;;;21.95;50.80
74637;BME280;63141;54.616;39.754;2023-07-13T12:16:25;99352.66;;;21.96;50.70
74637;BME280;63141;54.616;39.754;2023-07-13T12:19:31;99359.75;;;21.96;50.75
74637;BME280;63141;54.616;39.754;2023-07-13T12:22:38;99360.69;;;21.95;50.72
74637;BME280;63141;54.616;39.754;2023-07-13T12:25:40;99360.69;;;21.95;50.82
74637;BME280;63141;54.616;39.754;2023-07-13T12:28:54;99351.78;;;21.96;50.89
74637;BME280;63141;54.616;39.754;2023-07-13T12:32:08;99356.25;;;21.95;50.89
74637;BME280;63141;54.616;39.754;2023-07-13T12:35:16;99349.16;;;21.96;50.99
74637;BME280;63141;54.616;39.754;2023-07-13T12:38:30;99334.19;;;21.95;50.97
74637;BME280;63141;54.616;39.754;2023-07-13T12:41:33;99338.63;;;21.94;51.21
74637;BME280;63141;54.616;39.754;2023-07-13T12:44:40;99331.53;;;21.95;50.95
74637;BME280;63141;54.616;39.754;2023-07-13T12:47:49;99335.88;;;21.96;51.06
74637;BME280;63141;54.616;39.754;2023-07-13T12:51:00;99337.69;;;21.95;51.02
74637;BME280;63141;54.616;39.754;2023-07-13T12:54:13;99344.63;;;21.98;51.15
74637;BME280;63141;54.616;39.754;2023-07-13T12:57:17;99335.88;;;21.96;51.18
74637;BME280;63141;54.616;39.754;2023-07-13T13:00:35;99332.31;;;21.97;51.36
74637;BME280;63141;54.616;39.754;2023-07-13T13:03:40;99337.63;;;21.97;51.12
74637;BME280;63141;54.616;39.754;2023-07-13T13:06:45;99342.91;;;21.97;51.37
74637;BME280;63141;54.616;39.754;2023-07-13T13:09:59;99335.88;;;21.96;51.37
74637;BME280;63141;54.616;39.754;2023-07-13T13:13:07;99348.22;;;21.97;51.49
74637;BME280;63141;54.616;39.754;2023-07-13T13:16:33;99339.50;;;21.95;51.57
74637;BME280;63141;54.616;39.754;2023-07-13T13:19:38;99342.22;;;21.93;51.72
74637;BME280;63141;54.616;39.754;2023-07-13T13:22:42;99345.81;;;21.92;51.81
74637;BME280;63141;54.616;39.754;2023-07-13T13:25:49;99353.75;;;21.92;51.73
74637;BME280;63141;54.616;39.754;2023-07-13T13:28:54;99359.97;;;21.91;51.68
74637;BME280;63141;54.616;39.754;2023-07-13T13:31:55;99374.19;;;21.90;51.64
74637;BME280;63141;54.616;39.754;2023-07-13T13:35:00;99368.78;;;21.92;51.78
74637;BME280;63141;54.616;39.754;2023-07-13T13:38:14;99372.31;;;21.92;51.53
74637;BME280;63141;54.616;39.754;2023-07-13T13:41:16;99375.91;;;21.91;51.25
74637;BME280;63141;54.616;39.754;2023-07-13T13:44:22;99383.78;;;21.93;51.33
74637;BME280;63141;54.616;39.754;2023-07-13T13:47:30;99398.72;;;21.94;51.31
74637;BME280;63141;54.616;39.754;2023-07-13T13:50:32;99412.88;;;21.94;51.42
74637;BME280;63141;54.616;39.754;2023-07-13T13:53:33;99419.03;;;21.95;51.80
74637;BME280;63141;54.616;39.754;2023-07-13T13:56:45;99422.47;;;21.97;52.58
74637;BME280;63141;54.616;39.754;2023-07-13T13:59:46;99422.47;;;21.97;53.10
74637;BME280;63141;54.616;39.754;2023-07-13T14:02:50;99440.06;;;21.98;54.31
74637;BME280;63141;54.616;39.754;2023-07-13T14:05:56;99444.38;;;22.01;54.48
74637;BME280;63141;54.616;39.754;2023-07-13T14:08:59;99438.13;;;22.02;55.08
74637;BME280;63141;54.616;39.754;2023-07-13T14:12:09;99439.91;;;22.01;55.74
74637;BME280;63141;54.616;39.754;2023-07-13T14:15:29;99442.56;;;22.01;56.09
74637;BME280;63141;54.616;39.754;2023-07-13T14:18:33;99446.16;;;22.00;56.54
74637;BME280;63141;54.616;39.754;2023-07-13T14:21:41;99435.56;;;22.00;56.81
74637;BME280;63141;54.616;39.754;2023-07-13T14:24:54;99440.06;;;21.98;56.88
74637;BME280;63141;54.616;39.754;2023-07-13T14:28:18;99434.78;;;21.98;57.11
74637;BME280;63141;54.616;39.754;2023-07-13T14:31:24;99434.78;;;21.98;56.95
74637;BME280;63141;54.616;39.754;2023-07-13T14:34:32;99428.63;;;21.98;57.14
74637;BME280;63141;54.616;39.754;2023-07-13T14:37:36;99426.03;;;21.96;57.19
74637;BME280;63141;54.616;39.754;2023-07-13T14:40:41;99427.84;;;21.95;57.10
74637;BME280;63141;54.616;39.754;2023-07-13T14:43:42;99427.91;;;21.94;57.05
74637;BME280;63141;54.616;39.754;2023-07-13T14:46:56;99416.44;;;21.93;57.02
74637;BME280;63141;54.616;39.754;2023-07-13T14:50:04;99421.81;;;21.92;56.72
74637;BME280;63141;54.616;39.754;2023-07-13T14:53:13;99419.25;;;21.90;56.48
74637;BME280;63141;54.616;39.754;2023-07-13T14:56:28;99420.13;;;21.91;56.48
74637;BME280;63141;54.616;39.754;2023-07-13T14:59:32;99411.38;;;21.89;56.34
74637;BME280;63141;54.616;39.754;2023-07-13T15:02:37;99412.31;;;21.88;56.22
74637;BME280;63141;54.616;39.754;2023-07-13T15:05:48;99413.34;;;21.85;56.29
74637;BME280;63141;54.616;39.754;2023-07-13T15:08:55;99404.59;;;21.83;56.17
74637;BME280;63141;54.616;39.754;2023-07-13T15:11:59;99405.63;;;21.81;56.38
74637;BME280;63141;54.616;39.754;2023-07-13T15:15:03;99412.78;;;21.79;56.46
74637;BME280;63141;54.616;39.754;2023-07-13T15:18:09;99402.19;;;21.79;56.29
74637;BME280;63141;54.616;39.754;2023-07-13T15:21:21;99406.59;;;21.78;56.11
74637;BME280;63141;54.616;39.754;2023-07-13T15:24:29;99408.47;;;21.76;55.99
74637;BME280;63141;54.616;39.754;2023-07-13T15:27:52;99402.31;;;21.75;56.14
74637;BME280;63141;54.616;39.754;2023-07-13T15:30:56;99413.88;;;21.74;55.92
74637;BME280;63141;54.616;39.754;2023-07-13T15:33:58;99407.78;;;21.72;55.97
74637;BME280;63141;54.616;39.754;2023-07-13T15:37:04;99413.09;;;21.72;55.88
74637;BME280;63141;54.616;39.754;2023-07-13T15:40:07;99408.69;;;21.71;55.99
74637;BME280;63141;54.616;39.754;2023-07-13T15:43:15;99404.34;;;21.70;55.68
74637;BME280;63141;54.616;39.754;2023-07-13T15:46:22;99403.50;;;21.70;55.69
74637;BME280;63141;54.616;39.754;2023-07-13T15:49:27;99403.56;;;21.68;55.48
74637;BME280;63141;54.616;39.754;2023-07-13T15:52:34;99407.06;;;21.69;55.65
74637;BME280;63141;54.616;39.754;2023-07-13T15:55:42;99400.91;;;21.68;55.73
74637;BME280;63141;54.616;39.754;2023-07-13T15:58:50;99412.47;;;21.67;55.50
74637;BME280;63141;54.616;39.754;2023-07-13T16:01:51;99411.56;;;21.67;55.52
74637;BME280;63141;54.616;39.754;2023-07-13T16:05:05;99408.00;;;21.68;55.36
74637;BME280;63141;54.616;39.754;2023-07-13T16:08:24;99405.19;;;21.71;55.18
74637;BME280;63141;54.616;39.754;2023-07-13T16:11:37;99395.44;;;21.71;54.89
74637;BME280;63141;54.616;39.754;2023-07-13T16:14:48;99391.88;;;21.72;54.91
74637;BME280;63141;54.616;39.754;2023-07-13T16:17:53;99388.28;;;21.73;54.98
74637;BME280;63141;54.616;39.754;2023-07-13T16:21:11;99385.56;;;21.75;55.03
74637;BME280;63141;54.616;39.754;2023-07-13T16:24:21;99397.00;;;21.75;55.29
74637;BME280;63141;54.616;39.754;2023-07-13T16:27:28;99391.72;;;21.75;55.35
74637;BME280;63141;54.616;39.754;2023-07-13T16:30:38;99393.44;;;21.77;55.52
74637;BME280;63141;54.616;39.754;2023-07-13T16:33:49;99386.28;;;21.79;55.89
74637;BME280;63141;54.616;39.754;2023-07-13T16:37:13;99385.09;;;21.84;55.79
74637;BME280;63141;54.616;39.754;2023-07-13T16:40:27;99371.59;;;21.89;55.93
74637;BME280;63141;54.616;39.754;2023-07-13T16:43:40;99369.56;;;21.94;55.92
74637;BME280;63141;54.616;39.754;2023-07-13T16:46:42;99364.75;;;22.02;55.74
74637;BME280;63141;54.616;39.754;2023-07-13T16:49:55;99359.81;;;22.12;55.58